Time;durP1;ratioP1;P1;durP2;ratioP2;P2;SDS_P1;SDS_P2;PMS_P1;PMS_P2;Temp;Humidity;BMP_temperature;BMP_pressure;BME280_temperature;BME280_humidity;BME280_pressure;Samples;Min_cycle;Max_cycle;Signal;HPM_P1;HPM_P2
2021/11/30 00:01:23;;;;;;;14.05;10.85;;;;;;;1.56;87.21;99688.53;1714623;82;20948;-78
2021/11/30 00:03:49;;;;;;;16.80;10.38;;;;;;;1.55;87.18;99686.41;1697523;82;21142;-78
2021/11/30 00:06:15;;;;;;;14.73;11.60;;;;;;;1.53;87.17;99684.70;1721043;82;21035;-77
2021/11/30 00:08:42;;;;;;;16.70;12.10;;;;;;;1.51;87.16;99687.23;1703685;83;21055;-77
2021/11/30 00:11:11;;;;;;;17.67;11.73;;;;;;;1.51;87.17;99687.23;1682289;83;21122;-77
2021/11/30 00:13:40;;;;;;;19.32;12.53;;;;;;;1.52;87.18;99697.00;1713498;83;21054;-78
2021/11/30 00:16:08;;;;;;;18.07;11.45;;;;;;;1.50;87.17;99692.32;1702910;83;21511;-77
2021/11/30 00:18:35;;;;;;;17.48;12.75;;;;;;;1.51;87.22;99697.42;1687739;83;20963;-77
2021/11/30 00:21:06;;;;;;;15.48;11.18;;;;;;;1.52;87.19;99697.00;1676482;83;21034;-77
2021/11/30 00:23:33;;;;;;;17.92;11.73;;;;;;;1.53;87.21;99699.98;1702381;82;20967;-77
2021/11/30 00:26:01;;;;;;;17.57;11.55;;;;;;;1.54;87.21;99697.86;1697161;83;21037;-76
2021/11/30 00:28:27;;;;;;;15.18;10.85;;;;;;;1.53;87.21;99700.83;1705779;83;21006;-76
2021/11/30 00:30:53;;;;;;;19.32;10.82;;;;;;;1.56;87.21;99706.37;1684228;83;21592;-76
2021/11/30 00:33:20;;;;;;;15.78;11.53;;;;;;;1.56;87.16;99705.91;1702939;83;21114;-76
2021/11/30 00:35:49;;;;;;;16.05;11.28;;;;;;;1.56;87.19;99700.00;1712784;83;21069;-77
2021/11/30 00:38:16;;;;;;;;;;;;;;;1.57;87.18;99708.04;1656942;84;21010;-77
2021/11/30 00:40:45;;;;;;;13.40;9.68;;;;;;;1.56;87.14;99717.38;1684538;83;20232;-77
2021/11/30 00:43:23;;;;;;;14.00;10.05;;;;;;;1.54;87.13;99710.60;1717971;83;20985;-77
2021/11/30 00:48:30;;;;;;;15.98;11.12;;;;;;;1.53;87.16;99708.47;1658548;83;21077;-77
2021/11/30 00:50:53;;;;;;;14.53;9.70;;;;;;;1.53;87.14;99719.09;1662982;83;21121;-78
2021/11/30 00:53:21;;;;;;;13.75;9.18;;;;;;;1.52;87.12;99718.23;1690009;83;20987;-77
2021/11/30 00:55:48;;;;;;;14.58;9.85;;;;;;;1.51;87.11;99720.77;1648702;85;21554;-77
2021/11/30 00:58:15;;;;;;;11.63;9.78;;;;;;;1.50;87.15;99713.55;1685050;83;21510;-77
2021/11/30 01:00:41;;;;;;;10.53;9.28;;;;;;;1.50;87.12;99716.09;1683455;83;21058;-77
2021/11/30 01:03:08;;;;;;;15.23;9.50;;;;;;;1.49;87.07;99713.54;1687649;83;21517;-77
2021/11/30 01:05:35;;;;;;;;;;;;;;;1.47;87.05;99710.13;1623889;86;21110;-77
2021/11/30 01:08:04;;;;;;;12.00;8.63;;;;;;;1.44;87.01;99698.23;1633895;86;20157;-77
2021/11/30 01:10:31;;;;;;;16.70;8.98;;;;;;;1.44;87.00;99697.38;1728238;83;21034;-77
2021/11/30 01:12:58;;;;;;;9.93;8.23;;;;;;;1.41;86.97;99699.91;1655044;84;21046;-77
2021/11/30 01:15:25;;;;;;;13.70;8.05;;;;;;;1.38;86.93;99708.80;1699189;82;20990;-77
2021/11/30 01:17:52;;;;;;;10.08;7.83;;;;;;;1.33;86.86;99724.91;1721185;82;21439;-77
2021/11/30 01:20:18;;;;;;;9.88;8.35;;;;;;;1.27;86.87;99715.95;1706060;82;20986;-77
2021/11/30 01:22:46;;;;;;;10.38;8.13;;;;;;;1.24;86.88;99721.44;1718567;82;20931;-77
2021/11/30 01:25:13;;;;;;;9.83;8.15;;;;;;;1.22;86.92;99722.70;1697427;83;21559;-77
2021/11/30 01:27:39;;;;;;;;;;;;;;;1.20;86.94;99713.34;1721806;82;20930;-77
2021/11/30 01:30:08;;;;;;;8.05;7.05;;;;;;;1.20;86.94;99719.71;1653160;84;21889;-77
2021/11/30 01:32:35;;;;;;;7.33;6.05;;;;;;;1.18;86.95;99720.12;1692816;83;20927;-77
2021/11/30 01:35:01;;;;;;;;;;;;;;;1.16;86.96;99712.47;1711632;82;20910;-77
2021/11/30 01:37:27;;;;;;;7.47;4.65;;;;;;;1.15;86.98;99714.58;1709031;82;20185;-77
2021/11/30 01:39:54;;;;;;;5.60;5.00;;;;;;;1.13;86.99;99709.90;1685857;83;28023;-77
2021/11/30 01:42:21;;;;;;;6.92;4.25;;;;;;;1.14;86.99;99720.94;1689661;84;20956;-77
2021/11/30 01:44:51;;;;;;;8.40;4.72;;;;;;;1.11;86.96;99705.64;1691383;83;20944;-77
2021/11/30 01:47:40;;;;;;;5.80;4.42;;;;;;;1.11;86.96;99715.82;1695902;82;20961;-77
2021/11/30 01:49:53;;;;;;;4.72;4.17;;;;;;;1.10;86.98;99717.93;1703291;82;20883;-77
2021/11/30 01:52:21;;;;;;;5.03;4.37;;;;;;;1.10;86.99;99714.97;1732575;81;26358;-77
2021/11/30 01:54:48;;;;;;;6.15;4.58;;;;;;;1.02;87.05;99701.36;1736219;81;20903;-77
2021/11/30 01:57:16;;;;;;;5.30;4.37;;;;;;;1.10;86.97;99723.02;1709342;82;21388;-77
2021/11/30 01:59:48;;;;;;;6.58;4.42;;;;;;;1.10;86.96;99717.93;1561837;83;20946;-76
2021/11/30 02:02:15;;;;;;;4.67;4.28;;;;;;;1.10;86.99;99711.14;1569931;89;20970;-77
2021/11/30 02:04:41;;;;;;;;;;;;;;;1.12;86.99;99716.25;1593647;89;20966;-77
2021/11/30 02:07:10;;;;;;;4.90;4.37;;;;;;;1.11;87.01;99718.36;1586223;89;20192;-77
2021/11/30 02:09:37;;;;;;;;;;;;;;;1.12;87.00;99727.70;1574581;89;21114;-77
2021/11/30 02:12:08;;;;;;;5.67;3.98;;;;;;;1.12;86.99;99723.47;1584656;89;20628;-77
2021/11/30 02:14:36;;;;;;;8.48;4.37;;;;;;;1.11;86.96;99718.36;1562512;89;21038;-78
2021/11/30 02:17:07;;;;;;;122.10;14.65;;;;;;;1.11;86.99;99716.67;1564737;89;21562;-77
2021/11/30 02:19:41;;;;;;;4.92;4.53;;;;;;;1.11;86.97;99718.36;1570700;89;21720;-77
2021/11/30 02:22:02;;;;;;;5.47;4.03;;;;;;;1.10;86.94;99711.57;1586587;89;21582;-77
2021/11/30 02:24:29;;;;;;;4.53;4.12;;;;;;;1.09;86.92;99720.90;1602209;89;21587;-77
2021/11/30 02:26:55;;;;;;;5.17;4.58;;;;;;;1.10;86.94;99720.06;1585738;89;21033;-77
2021/11/30 02:29:22;;;;;;;5.47;4.62;;;;;;;1.09;86.90;99720.05;1597907;89;21661;-77
2021/11/30 02:31:49;;;;;;;9.80;4.70;;;;;;;1.09;86.90;99721.31;1602857;89;21106;-78
2021/11/30 02:34:16;;;;;;;4.83;4.25;;;;;;;1.06;86.87;99712.38;1572840;89;20923;-77
2021/11/30 02:39:15;;;;;;;4.80;4.30;;;;;;;1.03;86.87;99712.39;1603326;89;21150;-77
2021/11/30 02:41:43;;;;;;;5.20;4.33;;;;;;;1.02;86.84;99708.14;1585156;89;21169;-76
2021/11/30 02:44:13;;;;;;;3.87;3.15;;;;;;;0.99;86.78;99712.78;1592762;89;22241;-76
2021/11/30 02:46:45;;;;;;;5.75;3.25;;;;;;;0.93;86.73;99711.05;1604228;89;21006;-76
2021/11/30 02:49:15;;;;;;;3.30;3.00;;;;;;;0.90;86.71;99712.71;1600152;89;21533;-76
2021/11/30 02:51:46;;;;;;;4.05;3.65;;;;;;;0.84;86.69;99707.15;1562411;89;21158;-77
2021/11/30 02:54:20;;;;;;;4.12;3.47;;;;;;;0.81;86.72;99702.03;1592668;89;21083;-78
2021/11/30 02:56:54;;;;;;;5.08;3.45;;;;;;;0.78;86.71;99699.88;1568197;89;21665;-77
2021/11/30 02:59:25;;;;;;;5.87;3.27;;;;;;;0.76;86.72;99701.56;1594461;89;21443;-77
2021/11/30 03:01:57;;;;;;;4.33;3.62;;;;;;;0.72;86.68;99701.95;1596239;89;20947;-77
2021/11/30 03:04:25;;;;;;;5.83;4.17;;;;;;;0.65;86.65;99702.31;1553226;90;21495;-78
2021/11/30 03:06:52;;;;;;;3.58;3.15;;;;;;;0.58;86.60;99696.73;1602712;89;21459;-78
2021/11/30 03:09:19;;;;;;;4.75;3.95;;;;;;;0.53;86.62;99694.98;1604824;88;21558;-77
2021/11/30 03:11:45;;;;;;;;;;;;;;;0.46;86.61;99695.38;1589707;89;21716;-76
2021/11/30 03:14:12;;;;;;;5.53;3.60;;;;;;;0.42;86.62;99691.09;1570182;89;20177;-76
2021/11/30 03:16:40;;;;;;;6.45;4.00;;;;;;;0.37;86.65;99687.66;1602594;89;21621;-77
2021/11/30 03:19:08;;;;;;;7.10;4.85;;;;;;;0.32;86.66;99677.44;1566942;89;21566;-76
2021/11/30 03:21:34;;;;;;;5.67;4.40;;;;;;;0.27;86.64;99676.95;1598480;89;21129;-76
2021/11/30 03:24:00;;;;;;;7.03;4.28;;;;;;;0.25;86.69;99676.09;1587711;89;21129;-77
2021/11/30 03:26:28;;;;;;;4.83;4.33;;;;;;;0.22;86.71;99675.64;1593961;89;21093;-77
2021/11/30 03:28:55;;;;;;;5.28;4.67;;;;;;;0.19;86.70;99673.06;1579804;89;21145;-77
2021/11/30 03:31:33;;;;;;;;;;;;;;;0.14;86.66;99667.08;1598500;89;21075;-76
2021/11/30 03:33:59;;;;;;;4.78;4.00;;;;;;;0.10;86.67;99661.52;1580577;89;20170;-76
2021/11/30 03:36:26;;;;;;;5.83;4.80;;;;;;;0.08;86.66;99659.80;1582204;89;21085;-76
2021/11/30 03:38:52;;;;;;;5.62;4.87;;;;;;;0.08;86.71;99664.47;1588301;89;21112;-77
2021/11/30 03:41:19;;;;;;;6.58;5.45;;;;;;;0.08;86.73;99658.53;1597387;89;21087;-77
2021/11/30 03:43:45;;;;;;;4.95;4.45;;;;;;;0.08;86.73;99655.98;1560977;89;21170;-77
2021/11/30 03:46:11;;;;;;;5.83;5.22;;;;;;;0.06;86.68;99655.97;1593811;89;21137;-77
2021/11/30 03:48:38;;;;;;;6.30;4.95;;;;;;;0.05;86.66;99655.53;1603085;89;21112;-77
2021/11/30 03:51:04;;;;;;;5.85;4.83;;;;;;;0.04;86.67;99654.25;1584745;89;21625;-77
2021/11/30 03:53:30;;;;;;;7.00;5.50;;;;;;;0.05;86.62;99649.60;1573105;89;21085;-77
2021/11/30 03:55:57;;;;;;;6.25;5.40;;;;;;;0.06;86.73;99643.69;1602939;89;28851;-77
2021/11/30 03:58:23;;;;;;;6.25;5.25;;;;;;;0.08;86.76;99645.41;1591155;89;21102;-77
2021/11/30 04:00:49;;;;;;;8.33;5.80;;;;;;;0.10;86.76;99642.87;1509781;89;5039859;-77
2021/11/30 04:03:16;;;;;;;5.90;5.30;;;;;;;0.11;86.69;99636.95;1588078;88;21056;-77
2021/11/30 04:05:42;;;;;;;;;;;;;;;0.10;86.67;99631.44;1633390;87;21080;-77
2021/11/30 04:08:08;;;;;;;5.05;4.33;;;;;;;0.10;86.64;99631.44;1621541;87;20694;-77
2021/11/30 04:10:34;;;;;;;6.50;4.83;;;;;;;0.10;86.66;99635.25;1591534;88;21319;-77
2021/11/30 04:13:01;;;;;;;7.33;6.33;;;;;;;0.10;86.67;99627.21;1622597;88;21037;-77
2021/11/30 04:15:27;;;;;;;10.35;8.08;;;;;;;0.13;86.70;99631.05;1618831;87;21053;-77
2021/11/30 04:17:54;;;;;;;10.13;8.75;;;;;;;0.14;86.66;99635.72;1619480;88;28239;-77
2021/11/30 04:20:20;;;;;;;8.05;7.17;;;;;;;0.15;86.68;99623.45;1617159;87;21135;-78
2021/11/30 04:22:47;;;;;;;7.92;6.65;;;;;;;0.16;86.63;99616.25;1628839;88;21053;-77
2021/11/30 04:25:14;;;;;;;6.28;5.67;;;;;;;0.16;86.67;99608.20;1617178;87;21683;-77
2021/11/30 04:27:41;;;;;;;6.97;6.28;;;;;;;0.18;86.65;99603.14;1623293;88;21057;-77
2021/11/30 04:30:10;;;;;;;7.35;6.28;;;;;;;0.17;86.62;99602.71;1620160;88;21040;-77
2021/11/30 04:32:38;;;;;;;6.67;6.08;;;;;;;0.18;86.66;99596.78;1623582;87;20914;-77
2021/11/30 04:35:05;;;;;;;7.03;6.42;;;;;;;0.20;86.68;99581.13;1618901;87;21408;-77
2021/11/30 04:37:31;;;;;;;9.88;6.95;;;;;;;0.20;86.66;99581.13;1630746;87;20926;-77
2021/11/30 04:39:58;;;;;;;8.40;7.42;;;;;;;0.22;86.70;99573.95;1623470;87;21020;-77
2021/11/30 04:42:27;;;;;;;9.33;7.37;;;;;;;0.22;86.67;99572.68;1625547;87;21085;-77
2021/11/30 04:45:08;;;;;;;8.95;6.55;;;;;;;0.24;86.68;99570.16;1617179;88;21140;-76
2021/11/30 04:47:37;;;;;;;9.40;7.75;;;;;;;0.25;86.67;99569.31;1624708;88;20985;-76
2021/11/30 04:50:09;;;;;;;8.70;6.75;;;;;;;0.27;86.70;99567.22;1621639;87;21088;-76
2021/11/30 04:52:37;;;;;;;7.62;6.92;;;;;;;0.28;86.70;99562.98;1625214;87;20982;-77
2021/11/30 04:55:04;;;;;;;7.35;6.35;;;;;;;0.28;86.70;99550.27;1630087;86;20960;-76
2021/11/30 04:57:33;;;;;;;9.25;7.20;;;;;;;0.31;86.73;99545.22;1627767;86;20958;-70
2021/11/30 04:59:59;;;;;;;10.93;6.97;;;;;;;0.32;86.71;99541.83;1618561;87;20953;-69
2021/11/30 05:02:25;;;;;;;10.53;7.37;;;;;;;0.33;86.73;99538.03;1626250;86;21103;-69
2021/11/30 05:04:52;;;;;;;8.10;7.30;;;;;;;0.37;86.74;99530.42;1618552;87;21318;-69
2021/11/30 05:07:18;;;;;;;7.83;7.03;;;;;;;0.37;86.71;99523.65;1626180;88;21136;-69
2021/11/30 05:09:47;;;;;;;7.87;7.08;;;;;;;0.38;86.69;99527.89;1626111;86;21152;-69
2021/11/30 05:12:14;;;;;;;;;;;;;;;0.40;86.70;99516.47;1631217;87;20993;-69
2021/11/30 05:14:40;;;;;;;;;;;;;;;0.40;86.67;99515.20;1628918;86;20306;-69
2021/11/30 05:17:12;;;;;;;11.85;7.40;;;;;;;0.38;86.67;99509.25;1623424;87;20518;-69
2021/11/30 05:19:39;;;;;;;10.85;7.10;;;;;;;0.38;86.66;99504.16;1624565;87;21498;-69
2021/11/30 05:22:05;;;;;;;12.00;8.35;;;;;;;0.38;86.69;99502.47;1626878;87;21064;-69
2021/11/30 05:24:31;;;;;;;12.33;8.43;;;;;;;0.38;86.69;99500.34;1590220;89;21095;-69
2021/11/30 05:26:58;;;;;;;14.20;10.00;;;;;;;0.37;86.69;99493.14;1616975;87;25261;-69
2021/11/30 05:29:24;;;;;;;11.22;8.40;;;;;;;0.36;86.67;99490.59;1596580;89;21548;-69
2021/11/30 05:31:51;;;;;;;12.90;8.85;;;;;;;0.35;86.69;99483.37;1621720;86;21136;-68
2021/11/30 05:34:17;;;;;;;11.30;8.33;;;;;;;0.37;86.75;99477.03;1625350;87;21088;-68
2021/11/30 05:36:44;;;;;;;13.58;9.60;;;;;;;0.37;86.78;99475.34;1631513;87;21139;-68
2021/11/30 05:39:10;;;;;;;11.33;8.58;;;;;;;0.39;86.79;99471.54;1630723;87;21072;-69
2021/11/30 05:41:37;;;;;;;11.90;8.68;;;;;;;0.40;86.81;99467.73;1625471;87;21172;-69
2021/11/30 05:44:04;;;;;;;12.07;9.40;;;;;;;0.44;86.85;99467.33;1626615;87;21016;-69
2021/11/30 05:46:32;;;;;;;;;;;;;;;0.45;86.82;99458.45;1627594;87;21123;-69
2021/11/30 05:48:58;;;;;;;10.75;7.75;;;;;;;0.47;86.85;99459.30;1619772;86;20233;-69
2021/11/30 05:51:24;;;;;;;9.80;8.73;;;;;;;0.48;86.84;99449.56;1613927;87;21028;-69
2021/11/30 05:53:51;;;;;;;10.48;8.63;;;;;;;0.52;86.86;99448.70;1620072;87;21501;-69
2021/11/30 05:56:18;;;;;;;9.75;8.40;;;;;;;0.54;86.85;99449.98;1626838;87;21601;-69
2021/11/30 05:58:46;;;;;;;12.95;9.43;;;;;;;0.57;86.91;99444.50;1618558;87;21004;-68
2021/11/30 06:01:21;;;;;;;10.93;8.75;;;;;;;0.58;86.89;99438.56;1614095;87;21494;-69
2021/11/30 06:04:00;;;;;;;10.05;8.73;;;;;;;0.62;86.87;99439.02;1562956;90;21081;-69
2021/11/30 06:06:13;;;;;;;12.63;8.98;;;;;;;0.64;86.87;99430.97;1617902;87;21109;-69
2021/11/30 06:08:41;;;;;;;9.48;8.33;;;;;;;0.66;86.89;99423.34;1617805;87;21111;-69
2021/11/30 06:11:07;;;;;;;10.85;9.58;;;;;;;0.69;86.88;99417.00;1628725;87;21009;-69
2021/11/30 06:13:34;;;;;;;9.95;8.45;;;;;;;0.71;86.87;99412.77;1629846;87;21043;-68
2021/11/30 06:16:00;;;;;;;;;;;;;;;0.74;86.86;99414.05;1631875;86;21410;-69
2021/11/30 06:18:27;;;;;;;;;;;;;;;0.75;86.88;99407.27;1630529;87;20144;-69
2021/11/30 06:20:53;;;;;;;12.73;9.98;;;;;;;0.77;86.90;99407.70;1631998;87;20112;-69
2021/11/30 06:23:20;;;;;;;11.53;9.60;;;;;;;0.80;86.89;99401.78;1625625;87;21360;-69
2021/11/30 06:25:46;;;;;;;13.85;10.53;;;;;;;0.80;86.88;99399.23;1626270;87;21620;-69
2021/11/30 06:28:12;;;;;;;12.35;9.95;;;;;;;0.81;86.89;99398.39;1632301;87;21529;-68
2021/11/30 06:30:39;;;;;;;13.83;10.88;;;;;;;0.82;86.88;99388.22;1630242;86;20985;-68
2021/11/30 06:33:06;;;;;;;14.40;10.82;;;;;;;0.82;86.87;99389.49;1627183;87;20898;-69
2021/11/30 06:35:32;;;;;;;13.38;10.60;;;;;;;0.84;86.92;99390.34;1596672;88;21217;-69
2021/11/30 06:37:58;;;;;;;;;;;;;;;0.86;86.95;99377.63;1630863;86;21135;-69
2021/11/30 06:40:25;;;;;;;14.83;10.63;;;;;;;0.87;86.97;99368.73;1630754;86;20494;-69
2021/11/30 06:42:51;;;;;;;15.03;11.50;;;;;;;0.89;86.99;99364.91;1586333;88;28278;-69
2021/11/30 06:45:17;;;;;;;14.05;11.20;;;;;;;0.90;86.97;99357.71;1625736;86;21058;-69
2021/11/30 06:47:44;;;;;;;15.78;11.80;;;;;;;0.92;86.95;99357.30;1626626;86;28637;-69
2021/11/30 06:50:12;;;;;;;15.53;11.65;;;;;;;0.93;86.94;99346.27;1627811;87;21013;-69
2021/11/30 06:52:39;;;;;;;15.68;12.28;;;;;;;0.93;86.94;99347.54;1622941;86;21028;-69
2021/11/30 06:55:07;;;;;;;16.37;12.43;;;;;;;0.94;86.94;99336.52;1625187;86;20898;-68
2021/11/30 06:57:35;;;;;;;15.68;12.15;;;;;;;0.95;86.94;99333.13;1593908;88;21169;-69
2021/11/30 07:00:11;;;;;;;17.98;11.90;;;;;;;0.95;86.97;99316.58;1623756;87;21540;-69
2021/11/30 07:02:37;;;;;;;17.23;12.20;;;;;;;0.96;86.98;99312.77;1627298;86;20941;-69
2021/11/30 07:05:16;;;;;;;18.32;12.95;;;;;;;0.97;86.96;99304.70;1626756;86;20941;-69
2021/11/30 07:07:47;;;;;;;20.43;13.35;;;;;;;0.99;86.96;99306.83;1630358;86;21147;-69
2021/11/30 07:10:23;;;;;;;20.80;13.85;;;;;;;0.99;87.00;99301.74;1583872;89;21146;-70
2021/11/30 07:15:10;;;;;;;21.50;14.43;;;;;;;1.01;87.01;99284.78;1589427;88;21098;-69
2021/11/30 07:17:37;;;;;;;25.48;15.98;;;;;;;1.03;87.01;99278.42;1570324;90;21152;-70
2021/11/30 07:20:05;;;;;;;22.52;15.55;;;;;;;1.04;87.00;99277.57;1569710;90;21029;-70
2021/11/30 07:22:37;;;;;;;24.37;15.38;;;;;;;1.04;87.01;99268.66;1585531;88;21353;-70
2021/11/30 07:25:05;;;;;;;26.00;15.72;;;;;;;1.06;87.00;99263.97;1564475;90;21108;-70
2021/11/30 07:27:31;;;;;;;25.20;17.05;;;;;;;1.07;87.02;99252.94;1582563;88;20971;-70
2021/11/30 07:29:58;;;;;;;26.12;17.77;;;;;;;1.08;87.00;99236.81;1619114;87;20972;-70
2021/11/30 07:32:24;;;;;;;28.25;16.77;;;;;;;1.10;87.04;99233.00;1623134;87;20976;-69
2021/11/30 07:34:50;;;;;;;28.10;17.75;;;;;;;1.10;86.98;99229.18;1573802;90;21050;-69
2021/11/30 07:37:17;;;;;;;27.07;17.65;;;;;;;1.11;87.02;99219.42;831697;88;10000923;-69
2021/11/30 07:39:43;;;;;;;30.40;18.62;;;;;;;1.11;87.02;99216.87;1571868;90;25071;-69
2021/11/30 07:42:09;;;;;;;35.23;20.12;;;;;;;1.12;87.06;99210.51;1626931;87;20955;-70
2021/11/30 07:44:36;;;;;;;30.90;19.82;;;;;;;1.14;87.01;99196.51;1620106;87;20979;-69
2021/11/30 07:47:02;;;;;;;33.25;19.50;;;;;;;1.13;87.03;99186.75;1611752;87;20987;-69
2021/11/30 07:49:30;;;;;;;32.17;19.42;;;;;;;1.13;87.04;99179.12;1626300;87;21010;-69
2021/11/30 07:51:56;;;;;;;30.45;17.82;;;;;;;1.16;87.05;99168.08;1619687;87;20908;-70
2021/11/30 07:54:22;;;;;;;27.62;17.70;;;;;;;1.13;87.01;99177.00;1608264;87;20987;-69
2021/11/30 07:56:50;;;;;;;27.30;17.92;;;;;;;1.12;87.02;99165.12;1636644;86;21104;-69
2021/11/30 07:59:18;;;;;;;27.77;19.02;;;;;;;1.11;87.03;99158.33;1608444;87;20936;-70
2021/11/30 08:01:44;;;;;;;26.45;18.27;;;;;;;1.11;87.04;99153.23;1623488;87;21062;-69
2021/11/30 08:04:11;;;;;;;30.15;19.25;;;;;;;1.10;87.07;99140.09;1586145;89;21097;-69
2021/11/30 08:06:37;;;;;;;28.75;19.05;;;;;;;1.10;87.05;99132.03;1577757;89;21114;-69
2021/11/30 08:09:03;;;;;;;32.03;20.00;;;;;;;1.08;87.03;99129.06;1574669;89;22505;-69
2021/11/30 08:11:30;;;;;;;29.65;18.23;;;;;;;1.05;87.02;99116.34;1576971;87;21138;-69
2021/11/30 08:13:57;;;;;;;34.98;20.45;;;;;;;1.05;87.06;99116.34;1606815;87;21018;-69
2021/11/30 08:16:23;;;;;;;33.78;20.97;;;;;;;1.05;87.08;99105.73;1605423;87;21138;-69
2021/11/30 08:18:49;;;;;;;30.40;19.62;;;;;;;1.05;87.04;99103.62;1613075;87;21540;-70
2021/11/30 08:21:16;;;;;;;31.42;19.98;;;;;;;1.02;87.06;99093.05;1610702;87;21467;-69
2021/11/30 08:23:42;;;;;;;;;;;;;;;1.03;87.10;99089.66;1627046;87;21064;-69
2021/11/30 08:26:12;;;;;;;;;;;;;;;1.03;87.15;99070.56;1626930;87;20251;-70
2021/11/30 08:28:36;;;;;;;28.05;17.87;;;;;;;1.04;87.17;99068.87;1657464;84;20248;-69
2021/11/30 08:31:02;;;;;;;29.90;19.57;;;;;;;1.04;87.19;99063.31;1645571;85;21061;-70
2021/11/30 08:33:29;;;;;;;31.82;21.20;;;;;;;1.04;87.19;99059.50;1660195;85;20962;-69
2021/11/30 08:35:56;;;;;;;31.37;20.97;;;;;;;1.05;87.15;99051.02;1645148;85;21089;-69
2021/11/30 08:38:24;;;;;;;34.38;20.72;;;;;;;1.09;87.22;99039.13;1624508;87;22399;-69
2021/11/30 08:40:52;;;;;;;33.25;20.95;;;;;;;1.11;87.19;99032.33;1621653;86;21109;-70
2021/11/30 08:43:18;;;;;;;29.60;19.85;;;;;;;1.11;87.20;99016.64;1616083;87;25249;-69
2021/11/30 08:45:44;;;;;;;30.82;19.92;;;;;;;1.14;87.21;99015.78;1619899;87;21076;-69
2021/11/30 08:48:11;;;;;;;37.95;21.80;;;;;;;1.14;87.20;99000.08;1628709;87;21116;-69
2021/11/30 08:50:37;;;;;;;32.25;20.35;;;;;;;1.18;87.21;99009.82;1619172;87;21069;-69
2021/11/30 08:53:07;;;;;;;30.15;20.02;;;;;;;1.23;87.24;99008.11;1621350;87;21542;-69
2021/11/30 08:55:35;;;;;;;27.25;18.98;;;;;;;1.28;87.30;99005.11;1621492;88;21403;-69
2021/11/30 08:58:03;;;;;;;31.00;19.95;;;;;;;1.32;87.27;99008.91;1619070;86;21031;-69
2021/11/30 09:00:30;;;;;;;28.57;18.73;;;;;;;1.35;87.24;99002.96;1622376;88;20978;-69
2021/11/30 09:02:57;;;;;;;27.07;18.05;;;;;;;1.37;87.26;98982.16;1623070;87;20993;-69
2021/11/30 09:05:24;;;;;;;27.55;17.50;;;;;;;1.41;87.24;98972.80;1623076;86;20965;-69
2021/11/30 09:07:51;;;;;;;27.30;16.35;;;;;;;1.41;87.17;98958.79;1636200;84;20938;-69
2021/11/30 09:10:18;;;;;;;;;;;;;;;1.40;87.14;98947.76;1621445;86;20967;-69
2021/11/30 09:12:44;;;;;;;24.32;14.98;;;;;;;1.39;87.11;98939.70;1623175;87;20124;-69
2021/11/30 09:15:11;;;;;;;17.60;13.93;;;;;;;1.37;87.12;98921.47;1618063;86;21118;-69
2021/11/30 09:17:39;;;;;;;23.18;15.05;;;;;;;1.36;87.13;98923.59;1618694;87;20920;-69
2021/11/30 09:20:07;;;;;;;22.20;14.33;;;;;;;1.37;87.18;98904.48;1600747;87;20947;-69
2021/11/30 09:22:34;;;;;;;17.25;12.43;;;;;;;1.36;87.17;98896.86;1614580;87;20988;-69
2021/11/30 09:25:04;;;;;;;15.58;11.85;;;;;;;1.36;87.17;98891.34;1607990;87;20944;-69
2021/11/30 09:27:30;;;;;;;16.20;12.07;;;;;;;1.34;87.15;98873.95;1649850;85;20960;-69
2021/11/30 09:29:57;;;;;;;;;;;;;;;1.34;87.17;98875.23;1651233;85;20919;-69
2021/11/30 09:32:29;;;;;;;14.05;10.72;;;;;;;1.32;87.15;98858.69;1662348;85;20134;-69
2021/11/30 09:34:53;;;;;;;16.20;12.40;;;;;;;1.30;87.12;98845.13;1653976;85;21094;-69
2021/11/30 09:37:19;;;;;;;13.45;10.85;;;;;;;1.30;87.16;98837.91;1640970;85;21100;-69
2021/11/30 09:39:48;;;;;;;13.22;11.00;;;;;;;1.27;87.15;98833.69;1617912;87;21130;-69
2021/11/30 09:42:16;;;;;;;14.80;10.88;;;;;;;1.26;87.15;98821.81;1612425;87;21041;-69
2021/11/30 09:44:46;;;;;;;17.15;11.53;;;;;;;1.24;87.16;98810.80;1605370;87;21042;-69
2021/11/30 09:47:15;;;;;;;18.85;11.20;;;;;;;1.22;87.15;98798.51;1600209;87;21115;-70
2021/11/30 09:49:42;;;;;;;14.30;10.35;;;;;;;1.18;87.09;98789.63;1603987;87;20940;-69
2021/11/30 09:52:09;;;;;;;15.58;11.63;;;;;;;1.14;87.10;98780.33;1604963;89;21589;-70
2021/11/30 09:54:35;;;;;;;15.23;12.05;;;;;;;1.09;87.08;98771.45;1605997;87;20918;-69
2021/11/30 09:57:04;;;;;;;13.72;11.35;;;;;;;1.04;87.11;98757.92;1608282;87;21024;-70
2021/11/30 09:59:31;;;;;;;15.88;11.22;;;;;;;1.02;87.11;98763.91;1615560;87;20985;-69
2021/11/30 10:01:57;;;;;;;15.48;11.33;;;;;;;0.97;87.12;98746.13;1603336;87;21067;-70
2021/11/30 10:04:23;;;;;;;13.30;11.25;;;;;;;0.94;87.11;98737.24;1611628;87;21069;-70
2021/11/30 10:06:49;;;;;;;9.90;8.00;;;;;;;0.87;87.08;98729.23;1611576;85;21132;-69
2021/11/30 10:09:23;;;;;;;17.57;12.43;;;;;;;0.82;87.13;98719.09;1609604;87;26536;-70
2021/11/30 10:12:08;;;;;;;14.58;11.03;;;;;;;0.77;87.15;98704.72;1607075;87;20928;-70
2021/11/30 10:14:41;;;;;;;13.43;11.35;;;;;;;0.73;87.18;98708.14;1626385;87;21139;-70
2021/11/30 10:17:23;;;;;;;12.65;10.20;;;;;;;0.70;87.25;98689.93;1605903;87;21011;-70
2021/11/30 10:20:10;;;;;;;14.80;11.03;;;;;;;0.69;87.24;98681.04;1611204;87;20984;-70
2021/11/30 10:22:50;;;;;;;13.90;10.08;;;;;;;0.66;87.27;98673.84;1657408;85;20899;-70
2021/11/30 10:25:33;;;;;;;12.73;10.20;;;;;;;0.66;87.28;98664.10;1630551;87;21515;-70
2021/11/30 10:28:03;;;;;;;15.50;10.75;;;;;;;0.65;87.30;98653.52;1615151;87;20909;-70
2021/11/30 10:30:35;;;;;;;15.68;11.68;;;;;;;0.67;87.33;98644.17;1663169;85;20913;-70
2021/11/30 10:33:16;;;;;;;15.28;11.00;;;;;;;0.66;87.30;98634.43;1627734;87;20981;-70
2021/11/30 10:35:45;;;;;;;14.60;11.55;;;;;;;0.66;87.33;98619.59;1597812;87;21516;-70
2021/11/30 10:38:11;;;;;;;13.85;11.10;;;;;;;0.66;87.35;98608.15;1659968;85;20948;-70
2021/11/30 10:40:40;;;;;;;;;;;;;;;0.64;87.28;98592.91;1656416;85;20950;-70
2021/11/30 10:43:10;;;;;;;13.28;10.43;;;;;;;0.60;87.31;98570.90;1667959;84;20454;-70
2021/11/30 10:45:48;;;;;;;13.50;10.72;;;;;;;0.58;87.32;98558.63;1658282;85;20987;-70
2021/11/30 10:48:19;;;;;;;11.43;9.98;;;;;;;0.58;87.35;98557.36;1659594;85;20918;-70
2021/11/30 10:50:54;;;;;;;11.73;9.58;;;;;;;0.58;87.39;98548.88;1650831;85;21789;-70
2021/11/30 10:53:32;;;;;;;11.10;9.00;;;;;;;0.59;87.43;98541.24;1663319;85;21416;-70
2021/11/30 10:56:07;;;;;;;12.65;10.82;;;;;;;0.60;87.39;98535.73;1648211;85;21818;-70
2021/11/30 10:58:38;;;;;;;11.55;9.30;;;;;;;0.61;87.40;98531.05;1662328;85;21436;-70
2021/11/30 11:01:12;;;;;;;18.20;12.98;;;;;;;0.62;87.43;98514.52;1627157;87;21311;-70
2021/11/30 11:03:38;;;;;;;16.50;12.40;;;;;;;0.64;87.44;98507.71;1616758;87;21386;-70
2021/11/30 11:08:57;;;;;;;33.92;20.48;;;;;;;0.66;87.46;98501.34;1655245;85;21478;-70
2021/11/30 11:11:27;;;;;;;35.08;22.02;;;;;;;0.69;87.44;98489.86;1652644;85;21141;-70
2021/11/30 11:13:55;;;;;;;40.83;24.70;;;;;;;0.71;87.48;98483.48;1631608;86;21341;-70
2021/11/30 11:16:30;;;;;;;23.80;16.10;;;;;;;0.72;87.50;98480.92;1615298;87;21522;-70
2021/11/30 11:19:03;;;;;;;24.40;17.25;;;;;;;0.74;87.46;98479.64;1623846;87;21112;-70
2021/11/30 11:21:37;;;;;;;24.45;15.83;;;;;;;0.73;87.44;98480.50;1631669;87;21090;-70
2021/11/30 11:24:17;;;;;;;24.57;17.62;;;;;;;0.73;87.42;98479.22;1614614;87;21095;-70
2021/11/30 11:26:53;;;;;;;22.42;14.15;;;;;;;0.75;87.46;98466.06;1639170;87;21063;-70
2021/11/30 11:29:26;;;;;;;15.18;12.30;;;;;;;0.74;87.43;98461.41;1628246;87;21094;-70
2021/11/30 11:32:03;;;;;;;17.30;13.55;;;;;;;0.75;87.44;98454.61;1608030;87;21532;-70
2021/11/30 11:34:32;;;;;;;17.52;13.20;;;;;;;0.74;87.46;98449.95;1639329;87;21081;-70
2021/11/30 11:37:03;;;;;;;11.57;10.43;;;;;;;0.73;87.44;98439.80;1618707;87;21236;-70
2021/11/30 11:39:31;;;;;;;11.15;9.60;;;;;;;0.72;87.46;98438.12;1606390;87;21447;-70
2021/11/30 11:42:02;;;;;;;18.15;14.50;;;;;;;0.73;87.51;98424.11;1612852;87;21516;-70
2021/11/30 11:44:29;;;;;;;6.42;5.83;;;;;;;0.75;87.49;98423.66;1600460;88;21495;-70
2021/11/30 11:47:09;;;;;;;10.35;9.30;;;;;;;0.76;87.51;98413.06;1605195;88;21893;-70
2021/11/30 11:49:44;;;;;;;6.85;6.15;;;;;;;0.76;87.55;98407.55;1619535;86;21588;-70
2021/11/30 11:52:27;;;;;;;9.15;7.67;;;;;;;0.77;87.53;98409.66;1600007;88;615412;-70